createdAt,value
2018-12-06T00:01:06.331Z,73.52
2018-12-06T00:03:38.577Z,72.92
2018-12-06T00:06:10.025Z,73.03
2018-12-06T00:08:39.828Z,72.20
2018-12-06T00:11:15.347Z,72.70
2018-12-06T00:13:44.202Z,72.32
2018-12-06T00:16:13.130Z,72.24
2018-12-06T00:18:41.962Z,71.15
2018-12-06T00:21:16.898Z,71.45
2018-12-06T00:23:46.578Z,71.12
2018-12-06T00:26:15.522Z,70.81
2018-12-06T00:28:44.496Z,70.37
2018-12-06T00:31:14.078Z,70.47
2018-12-06T00:33:42.890Z,70.20
2018-12-06T00:36:11.867Z,70.17
2018-12-06T00:38:40.901Z,69.41
2018-12-06T00:41:09.974Z,69.79
2018-12-06T00:43:38.914Z,69.04
2018-12-06T00:46:07.898Z,69.47
2018-12-06T00:48:36.803Z,67.87
2018-12-06T00:51:05.675Z,68.38
2018-12-06T00:53:34.901Z,67.73
2018-12-06T00:56:04.671Z,67.61
2018-12-06T00:58:36.020Z,67.44
2018-12-06T01:01:06.485Z,67.71
2018-12-06T01:03:39.300Z,66.95
2018-12-06T01:06:08.235Z,67.50
2018-12-06T01:08:38.618Z,67.16
2018-12-06T01:11:09.694Z,66.98
2018-12-06T01:13:38.534Z,67.47
2018-12-06T01:16:07.730Z,66.67
2018-12-06T01:18:38.193Z,65.89
2018-12-06T01:21:07.954Z,66.14
2018-12-06T01:23:44.640Z,65.83
2018-12-06T01:26:19.012Z,65.93
2018-12-06T01:28:49.370Z,65.91
2018-12-06T01:31:24.268Z,66.59
2018-12-06T01:33:53.703Z,65.74
2018-12-06T01:36:24.028Z,66.37
2018-12-06T01:38:53.438Z,66.01
2018-12-06T01:41:22.426Z,66.07
2018-12-06T01:43:55.927Z,65.23
2018-12-06T01:46:29.808Z,65.65
2018-12-06T01:48:59.282Z,65.80
2018-12-06T01:51:29.837Z,64.69
2018-12-06T01:53:58.650Z,65.12
2018-12-06T01:56:27.762Z,64.93
2018-12-06T01:59:00.219Z,65.59
2018-12-06T02:01:30.102Z,64.70
2018-12-06T02:04:01.108Z,65.26
2018-12-06T02:06:32.270Z,65.18
2018-12-06T02:09:02.796Z,65.54
2018-12-06T02:11:33.698Z,65.35
2018-12-06T02:14:07.196Z,64.70
2018-12-06T02:16:36.726Z,65.05
2018-12-06T02:19:05.594Z,64.01
2018-12-06T02:21:34.498Z,64.30
2018-12-06T02:24:06.474Z,64.28
2018-12-06T02:26:35.794Z,64.86
2018-12-06T02:29:06.904Z,64.90
2018-12-06T02:31:36.791Z,64.36
2018-12-06T02:34:12.218Z,63.09
2018-12-06T02:36:41.109Z,63.77
2018-12-06T02:39:10.067Z,64.41
2018-12-06T02:41:39.433Z,65.01
2018-12-06T02:44:11.519Z,64.16
2018-12-06T02:46:42.421Z,64.37
2018-12-06T02:49:13.265Z,64.13
2018-12-06T02:51:43.249Z,64.53
2018-12-06T02:54:14.615Z,64.07
2018-12-06T02:56:43.552Z,63.45
2018-12-06T02:59:13.977Z,63.35
2018-12-06T03:01:43.305Z,62.88
2018-12-06T03:04:17.814Z,63.61
2018-12-06T03:06:50.419Z,63.29
2018-12-06T03:09:21.218Z,61.74
2018-12-06T03:11:51.619Z,61.75
2018-12-06T03:14:25.032Z,62.33
2018-12-06T03:16:57.553Z,61.98
2018-12-06T03:19:27.675Z,62.42
2018-12-06T03:21:56.609Z,62.18
2018-12-06T03:24:25.667Z,62.95
2018-12-06T03:26:54.510Z,62.81
2018-12-06T03:29:24.363Z,63.54
2018-12-06T03:31:54.589Z,61.34
2018-12-06T03:34:23.842Z,61.35
2018-12-06T03:36:52.669Z,61.30
2018-12-06T03:39:21.549Z,61.56
2018-12-06T03:41:53.535Z,61.74
2018-12-06T03:44:26.183Z,62.64
2018-12-06T03:46:56.902Z,62.22
2018-12-06T03:49:34.971Z,60.82
2018-12-06T03:52:05.661Z,61.78
2018-12-06T03:54:36.600Z,61.22
2018-12-06T03:57:12.631Z,60.90
2018-12-06T03:59:41.591Z,61.13
2018-12-06T04:02:10.486Z,62.00
2018-12-06T04:04:39.646Z,61.30
2018-12-06T04:07:09.134Z,61.40
2018-12-06T04:09:39.834Z,61.33
2018-12-06T04:12:12.020Z,61.05
2018-12-06T04:14:42.146Z,61.04
2018-12-06T04:17:11.006Z,60.90
2018-12-06T04:23:04.413Z,60.35
2018-12-06T04:25:34.074Z,61.20
2018-12-06T04:28:05.692Z,60.33
2018-12-06T04:30:38.150Z,59.65
2018-12-06T04:33:20.701Z,58.98
2018-12-06T04:35:59.624Z,58.57
2018-12-06T04:38:33.696Z,60.40
2018-12-06T04:41:05.689Z,60.16
2018-12-06T04:43:36.809Z,60.26
2018-12-06T04:46:05.945Z,60.89
2018-12-06T04:48:34.790Z,58.87
2018-12-06T04:51:04.176Z,59.09
2018-12-06T04:53:33.030Z,60.30
2018-12-06T04:56:04.060Z,59.67
2018-12-06T04:58:33.614Z,59.41
2018-12-06T05:01:02.495Z,60.29
2018-12-06T05:03:31.573Z,59.86
2018-12-06T05:06:00.504Z,59.49
2018-12-06T05:08:29.361Z,59.94
2018-12-06T05:11:06.996Z,61.48
2018-12-06T05:13:36.181Z,61.14
2018-12-06T05:16:13.080Z,61.70
2018-12-06T05:18:43.793Z,60.93
2018-12-06T05:21:21.560Z,61.13
2018-12-06T05:23:58.479Z,61.25
2018-12-06T05:26:37.340Z,62.59
2018-12-06T05:29:10.174Z,61.77
2018-12-06T05:31:41.700Z,60.87
2018-12-06T05:34:14.759Z,61.61
2018-12-06T05:36:44.463Z,62.12
2018-12-06T05:39:13.397Z,61.14
2018-12-06T05:41:42.341Z,61.17
2018-12-06T05:44:14.645Z,61.17
2018-12-06T05:46:46.337Z,61.70
2018-12-06T05:49:16.018Z,62.76
2018-12-06T05:51:45.058Z,63.11
2018-12-06T05:54:15.409Z,63.03
2018-12-06T05:56:44.280Z,62.69
2018-12-06T05:59:13.130Z,62.14
2018-12-06T06:01:42.378Z,62.09
2018-12-06T06:04:14.137Z,62.44
2018-12-06T06:06:43.503Z,62.45
2018-12-06T06:09:12.721Z,62.35
2018-12-06T06:11:41.602Z,61.85
2018-12-06T06:14:11.303Z,62.58
2018-12-06T06:16:40.197Z,61.86
2018-12-06T06:19:10.248Z,62.18
2018-12-06T06:21:40.114Z,61.54
2018-12-06T06:24:09.052Z,60.69
2018-12-06T06:26:38.243Z,60.67
2018-12-06T06:29:08.124Z,60.09
2018-12-06T06:31:37.212Z,60.95
2018-12-06T06:34:06.150Z,60.50
2018-12-06T06:36:35.859Z,59.81
2018-12-06T06:39:14.471Z,60.70
2018-12-06T06:41:48.823Z,58.58
2018-12-06T06:44:23.583Z,59.12
2018-12-06T06:46:59.114Z,59.57
2018-12-06T06:49:27.993Z,57.71
2018-12-06T06:52:01.496Z,56.35
2018-12-06T06:54:31.635Z,57.32
2018-12-06T06:57:02.315Z,56.75
2018-12-06T06:59:39.534Z,56.78
2018-12-06T07:02:11.190Z,56.85
2018-12-06T07:04:46.305Z,57.16
2018-12-06T07:07:15.201Z,55.69
2018-12-06T07:09:44.367Z,56.46
2018-12-06T07:12:16.605Z,57.03
2018-12-06T07:14:49.304Z,56.59
2018-12-06T07:17:20.956Z,55.25
2018-12-06T07:19:49.986Z,56.92
2018-12-06T07:22:19.940Z,56.85
2018-12-06T07:24:50.985Z,55.73
2018-12-06T07:27:26.563Z,54.79
2018-12-06T07:30:12.780Z,55.34
2018-12-06T07:39:40.844Z,55.26
2018-12-06T07:42:12.126Z,54.94
2018-12-06T07:44:54.830Z,54.90
2018-12-06T07:47:28.377Z,54.93
2018-12-06T07:50:01.095Z,53.31
2018-12-06T07:52:31.170Z,52.65
2018-12-06T07:55:02.013Z,54.02
2018-12-06T07:57:31.293Z,54.76
2018-12-06T08:00:00.853Z,53.87
2018-12-06T08:02:29.788Z,53.96
2018-12-06T08:04:59.774Z,53.60
2018-12-06T08:07:29.469Z,53.45
2018-12-06T08:09:59.809Z,53.09
2018-12-06T08:12:29.786Z,53.15
2018-12-06T08:14:59.172Z,51.60
2018-12-06T08:17:28.988Z,52.09
2018-12-06T08:22:38.133Z,51.40
2018-12-06T08:25:12.135Z,49.43
2018-12-06T08:27:41.005Z,50.69
2018-12-06T08:30:10.299Z,50.95
2018-12-06T08:32:42.806Z,50.48
2018-12-06T08:35:13.337Z,50.01
2018-12-06T08:37:44.773Z,50.41
2018-12-06T08:40:18.036Z,50.30
2018-12-06T08:42:51.269Z,50.12
2018-12-06T08:45:20.536Z,50.38
2018-12-06T08:47:50.000Z,51.10
2018-12-06T08:50:21.902Z,51.58
2018-12-06T08:52:56.509Z,51.25
2018-12-06T08:55:29.658Z,51.29
2018-12-06T08:57:59.579Z,51.12
2018-12-06T09:00:28.975Z,51.50
2018-12-06T09:02:57.895Z,51.20
2018-12-06T09:05:26.853Z,50.22
2018-12-06T09:07:56.218Z,51.63
2018-12-06T09:10:26.182Z,50.73
2018-12-06T09:12:58.593Z,50.45
2018-12-06T09:15:28.259Z,49.81
2018-12-06T09:17:57.658Z,51.20
2018-12-06T09:20:28.295Z,50.38
2018-12-06T09:25:51.010Z,50.53
2018-12-06T09:28:21.165Z,49.60
2018-12-06T09:31:01.193Z,49.35
2018-12-06T09:33:33.580Z,49.27
2018-12-06T09:36:09.845Z,50.23
2018-12-06T09:38:44.811Z,47.71
2018-12-06T09:41:17.558Z,49.84
2018-12-06T09:43:54.590Z,48.02
2018-12-06T09:46:32.599Z,48.00
2018-12-06T09:49:11.224Z,48.45
2018-12-06T09:51:44.875Z,48.38
2018-12-06T09:54:20.264Z,48.03
2018-12-06T09:56:56.693Z,47.70
2018-12-06T09:59:28.398Z,48.58
2018-12-06T10:02:04.790Z,47.22
2018-12-06T10:04:41.579Z,47.38
2018-12-06T10:07:11.839Z,48.89
2018-12-06T10:09:47.384Z,47.71
2018-12-06T10:12:21.690Z,47.46
2018-12-06T10:15:03.086Z,47.53
2018-12-06T10:17:32.922Z,46.74
2018-12-06T10:20:03.241Z,47.91
2018-12-06T10:22:32.101Z,46.37
2018-12-06T10:25:01.419Z,47.13
2018-12-06T10:27:30.537Z,47.15
2018-12-06T10:30:05.457Z,46.47
2018-12-06T10:32:34.863Z,46.96
2018-12-06T10:35:04.742Z,46.53
2018-12-06T10:37:34.443Z,47.67
2018-12-06T10:40:06.032Z,46.99
2018-12-06T10:42:35.070Z,47.48
2018-12-06T10:45:05.758Z,47.82
2018-12-06T10:47:37.280Z,46.58
2018-12-06T10:50:10.890Z,46.11
2018-12-06T10:52:41.733Z,45.59
2018-12-06T10:55:11.178Z,45.88
2018-12-06T10:57:41.506Z,46.79
2018-12-06T11:00:14.973Z,45.90
2018-12-06T11:02:49.375Z,46.16
2018-12-06T11:05:21.176Z,46.42
2018-12-06T11:07:52.435Z,44.32
2018-12-06T11:10:23.506Z,44.62
2018-12-06T11:13:00.327Z,45.29
2018-12-06T11:18:23.074Z,44.62
2018-12-06T11:20:53.159Z,45.59
2018-12-06T11:23:24.484Z,46.77
2018-12-06T11:25:56.912Z,45.87
2018-12-06T11:28:29.054Z,46.45
2018-12-06T11:30:59.886Z,46.20
2018-12-06T11:33:31.639Z,45.89
2018-12-06T11:36:00.582Z,45.15
2018-12-06T11:38:30.755Z,46.22
2018-12-06T11:41:02.876Z,46.26
2018-12-06T11:43:33.942Z,46.47
2018-12-06T11:46:04.058Z,45.77
2018-12-06T11:48:36.642Z,44.93
2018-12-06T11:51:08.644Z,46.59
2018-12-06T11:53:43.393Z,45.07
2018-12-06T11:56:17.985Z,45.27
2018-12-06T11:58:53.427Z,46.00
2018-12-06T12:01:26.347Z,45.33
2018-12-06T12:03:57.186Z,45.10
2018-12-06T12:06:28.412Z,44.90
2018-12-06T12:08:57.460Z,45.38
2018-12-06T12:11:31.025Z,45.31
2018-12-06T12:14:00.369Z,45.82
2018-12-06T12:16:32.102Z,45.85
2018-12-06T12:19:01.339Z,45.87
2018-12-06T12:21:35.634Z,46.00
2018-12-06T12:24:05.785Z,46.46
2018-12-06T12:26:38.576Z,46.62
2018-12-06T12:29:07.722Z,45.87
2018-12-06T12:31:40.677Z,47.12
2018-12-06T12:34:12.597Z,46.02
2018-12-06T12:36:42.416Z,47.87
2018-12-06T12:39:14.735Z,48.38
2018-12-06T12:41:45.510Z,46.52
2018-12-06T12:44:17.819Z,47.15
2018-12-06T12:46:46.798Z,47.36
2018-12-06T12:49:16.750Z,48.07
2018-12-06T12:51:48.045Z,48.72
2018-12-06T12:54:18.675Z,47.64
2018-12-06T12:56:48.642Z,48.13
2018-12-06T12:59:17.659Z,48.02
2018-12-06T13:01:55.600Z,48.10
2018-12-06T13:04:25.806Z,47.81
2018-12-06T13:06:55.159Z,48.12
2018-12-06T13:09:26.221Z,48.57
2018-12-06T13:11:56.498Z,47.50
2018-12-06T13:14:25.982Z,47.53
2018-12-06T13:16:57.432Z,47.85
2018-12-06T13:19:26.533Z,48.38
2018-12-06T13:22:00.074Z,49.55
2018-12-06T13:24:31.505Z,49.63
2018-12-06T13:27:05.735Z,49.83
2018-12-06T13:29:37.487Z,50.28
2018-12-06T13:32:07.939Z,49.15
2018-12-06T13:34:37.531Z,48.82
2018-12-06T13:37:09.044Z,49.24
2018-12-06T13:39:39.094Z,49.71
2018-12-06T13:42:10.406Z,49.81
2018-12-06T13:44:44.156Z,51.01
2018-12-06T13:47:18.495Z,49.74
2018-12-06T13:49:51.348Z,48.21
2018-12-06T13:52:22.809Z,49.04
2018-12-06T13:54:55.869Z,47.20
2018-12-06T13:57:31.666Z,48.95
2018-12-06T14:00:02.306Z,50.71
2018-12-06T14:02:32.463Z,50.66
2018-12-06T14:05:02.574Z,51.80
2018-12-06T14:07:31.633Z,51.18
2018-12-06T14:10:02.138Z,49.96
2018-12-06T14:12:32.018Z,49.61
2018-12-06T14:15:00.949Z,50.32
2018-12-06T14:17:32.005Z,49.97
2018-12-06T14:22:42.114Z,50.78
2018-12-06T14:25:11.002Z,51.93
2018-12-06T14:27:40.071Z,50.80
2018-12-06T14:30:09.230Z,50.51
2018-12-06T14:32:38.872Z,50.70
2018-12-06T14:35:08.754Z,49.67
2018-12-06T14:37:38.666Z,49.63
2018-12-06T14:40:07.721Z,50.86
2018-12-06T14:42:38.040Z,51.51
2018-12-06T14:45:10.355Z,52.00
2018-12-06T14:47:42.666Z,51.81
2018-12-06T14:50:12.449Z,52.22
2018-12-06T14:52:42.302Z,52.39
2018-12-06T14:55:11.939Z,53.24
2018-12-06T14:57:41.979Z,52.71
2018-12-06T15:00:12.822Z,53.08
2018-12-06T15:02:42.557Z,53.50
2018-12-06T15:05:11.719Z,53.59
2018-12-06T15:07:41.675Z,53.79
2018-12-06T15:10:10.621Z,54.15
2018-12-06T15:12:39.537Z,53.86
2018-12-06T15:15:09.486Z,52.56
2018-12-06T15:17:38.378Z,52.55
2018-12-06T15:20:08.385Z,53.24
2018-12-06T15:22:40.448Z,54.16
2018-12-06T15:25:10.485Z,53.84
2018-12-06T15:27:39.845Z,53.56
2018-12-06T15:30:11.978Z,53.19
2018-12-06T15:32:41.252Z,52.86
2018-12-06T15:35:12.191Z,51.98
2018-12-06T15:37:44.253Z,52.24
2018-12-06T15:40:14.163Z,51.93
2018-12-06T15:42:44.207Z,53.21
2018-12-06T15:45:15.853Z,54.03
2018-12-06T15:47:50.584Z,54.24
2018-12-06T15:50:22.333Z,54.49
2018-12-06T15:52:53.993Z,53.01
2018-12-06T15:58:10.194Z,51.90
2018-12-06T16:00:40.547Z,52.42
2018-12-06T16:03:12.143Z,52.05
2018-12-06T16:05:43.485Z,52.16
2018-12-06T16:08:19.243Z,52.26
2018-12-06T16:10:49.390Z,52.41
2018-12-06T16:13:19.196Z,52.89
2018-12-06T16:15:48.620Z,53.26
2018-12-06T16:18:18.164Z,53.66
2018-12-06T16:20:47.640Z,52.93
2018-12-06T16:23:17.178Z,53.64
2018-12-06T16:25:46.662Z,52.79
2018-12-06T16:28:16.049Z,52.97
2018-12-06T16:30:45.563Z,53.96
2018-12-06T16:33:15.286Z,54.68
2018-12-06T16:35:46.445Z,55.18
2018-12-06T16:38:17.542Z,55.40
2018-12-06T16:40:47.209Z,55.06
2018-12-06T16:43:16.750Z,55.22
2018-12-06T16:48:47.928Z,55.77
2018-12-06T16:51:21.926Z,57.11
2018-12-06T16:54:18.066Z,56.87
2018-12-06T16:56:58.480Z,57.17
2018-12-06T16:59:29.400Z,58.72
2018-12-06T17:02:00.802Z,60.26
2018-12-06T17:04:34.969Z,58.31
2018-12-06T17:07:14.388Z,58.67
2018-12-06T17:09:51.754Z,58.47
2018-12-06T17:12:31.956Z,58.66
2018-12-06T17:15:08.992Z,58.18
2018-12-06T17:17:47.394Z,58.18
2018-12-06T17:20:22.487Z,57.43
2018-12-06T17:22:53.718Z,56.71
2018-12-06T17:25:23.434Z,56.73
2018-12-06T17:27:54.019Z,57.14
2018-12-06T17:30:27.565Z,55.31
2018-12-06T17:33:02.448Z,53.99
2018-12-06T17:35:37.420Z,54.14
2018-12-06T17:38:09.480Z,54.82
2018-12-06T17:40:39.211Z,55.27
2018-12-06T17:43:09.018Z,56.44
2018-12-06T17:45:44.789Z,57.19
2018-12-06T17:48:18.861Z,58.45
2018-12-06T17:50:48.548Z,58.76
2018-12-06T17:53:21.845Z,57.22
2018-12-06T17:55:56.594Z,57.98
2018-12-06T17:58:26.189Z,59.11
2018-12-06T18:00:58.186Z,58.94
2018-12-06T18:03:28.077Z,59.26
2018-12-06T18:05:57.766Z,60.37
2018-12-06T18:08:27.454Z,60.41
2018-12-06T18:10:57.815Z,58.49
2018-12-06T18:13:29.219Z,58.56
2018-12-06T18:16:00.199Z,57.53
2018-12-06T18:18:29.552Z,57.33
2018-12-06T18:21:01.467Z,56.69
2018-12-06T18:23:31.867Z,57.19
2018-12-06T18:26:03.694Z,57.24
2018-12-06T18:28:37.748Z,56.71
2018-12-06T18:31:07.919Z,56.53
2018-12-06T18:33:40.970Z,56.29
2018-12-06T18:36:17.347Z,56.10
2018-12-06T18:38:46.419Z,55.50
2018-12-06T18:41:18.212Z,55.50
2018-12-06T18:43:53.824Z,55.50
2018-12-06T18:46:30.684Z,54.68
2018-12-06T18:49:12.609Z,55.12
2018-12-06T18:51:49.168Z,55.09
2018-12-06T18:54:26.947Z,54.47
2018-12-06T18:57:05.106Z,54.35
2018-12-06T18:59:38.599Z,53.61
2018-12-06T19:02:10.342Z,53.86
2018-12-06T19:04:40.891Z,54.13
2018-12-06T19:07:17.611Z,54.33
2018-12-06T19:09:49.471Z,54.20
2018-12-06T19:15:02.508Z,54.29
2018-12-06T19:17:40.782Z,54.93
2018-12-06T19:20:12.226Z,55.55
2018-12-06T19:22:41.920Z,55.81
2018-12-06T19:25:11.957Z,55.36
2018-12-06T19:27:45.914Z,54.99
2018-12-06T19:30:16.410Z,54.96
2018-12-06T19:33:03.224Z,54.54
2018-12-06T19:35:32.861Z,54.58
2018-12-06T19:38:03.064Z,54.36
2018-12-06T19:40:32.527Z,53.96
2018-12-06T19:43:01.517Z,53.73
2018-12-06T19:45:32.931Z,54.46
2018-12-06T19:48:02.445Z,54.26
2018-12-06T19:50:32.620Z,54.36
2018-12-06T19:53:04.404Z,54.16
2018-12-06T19:55:33.314Z,54.79
2018-12-06T19:58:02.895Z,54.27
2018-12-06T20:00:36.155Z,54.84
2018-12-06T20:03:07.004Z,55.53
2018-12-06T20:05:40.015Z,55.65
2018-12-06T20:08:09.731Z,56.02
2018-12-06T20:10:41.247Z,56.70
2018-12-06T20:13:13.572Z,56.58
2018-12-06T20:15:44.824Z,56.89
2018-12-06T20:18:20.646Z,56.19
2018-12-06T20:20:53.007Z,56.72
2018-12-06T20:23:22.567Z,56.18
2018-12-06T20:25:53.752Z,55.09
2018-12-06T20:28:26.442Z,54.92
2018-12-06T20:30:56.289Z,55.10
2018-12-06T20:33:27.600Z,55.69
2018-12-06T20:36:01.714Z,55.45
2018-12-06T20:38:31.784Z,55.14
2018-12-06T20:41:04.672Z,54.29
2018-12-06T20:43:43.816Z,54.88
2018-12-06T20:46:15.490Z,56.84
2018-12-06T20:48:47.681Z,58.97
2018-12-06T20:51:18.102Z,58.35
2018-12-06T20:53:48.396Z,58.83
2018-12-06T20:56:19.662Z,60.11
2018-12-06T21:02:24.136Z,58.97
2018-12-06T21:05:07.965Z,60.08
2018-12-06T21:07:52.711Z,59.02
2018-12-06T21:10:37.623Z,59.35
2018-12-06T21:13:20.019Z,59.16
2018-12-06T21:15:56.021Z,61.45
2018-12-06T21:18:42.628Z,61.54
2018-12-06T21:21:37.640Z,61.47
2018-12-06T21:24:26.002Z,62.25
2018-12-06T21:27:09.221Z,61.91
2018-12-06T21:32:43.583Z,63.49
2018-12-06T21:35:53.783Z,63.64
2018-12-06T21:38:32.427Z,62.61
2018-12-06T21:41:13.483Z,61.97
2018-12-06T21:43:51.303Z,62.42
2018-12-06T21:46:32.705Z,61.90
2018-12-06T21:49:25.827Z,57.51
2018-12-06T21:52:10.723Z,58.15
2018-12-06T21:54:46.566Z,57.63
2018-12-06T21:57:28.980Z,57.91
2018-12-06T22:00:13.296Z,58.64
2018-12-06T22:05:49.113Z,59.00
2018-12-06T22:08:51.352Z,58.94
2018-12-06T22:11:32.637Z,60.71
2018-12-06T22:20:46.715Z,63.28
2018-12-06T22:26:43.279Z,63.79
2018-12-06T22:29:27.262Z,64.97
2018-12-06T22:32:09.542Z,65.34
2018-12-06T22:34:57.902Z,64.82
2018-12-06T22:37:54.882Z,64.60
2018-12-06T22:48:03.414Z,64.42
2018-12-06T22:50:42.521Z,63.92
2018-12-06T22:53:16.460Z,62.89
2018-12-06T22:56:05.440Z,62.01
2018-12-06T22:58:42.511Z,62.31
2018-12-06T23:04:15.185Z,65.87
2018-12-06T23:06:53.004Z,66.36
2018-12-06T23:09:54.755Z,66.59
2018-12-06T23:12:37.034Z,67.84
2018-12-06T23:15:08.621Z,68.70
2018-12-06T23:17:48.402Z,70.09
2018-12-06T23:20:26.587Z,70.15
2018-12-06T23:23:02.334Z,70.45
2018-12-06T23:25:36.170Z,69.16
2018-12-06T23:28:18.827Z,67.56
2018-12-06T23:30:52.724Z,66.23
2018-12-06T23:33:31.802Z,65.22
2018-12-06T23:36:09.030Z,64.48
2018-12-06T23:38:49.456Z,64.62
2018-12-06T23:41:29.100Z,64.36
2018-12-06T23:44:10.032Z,65.02
2018-12-06T23:46:50.128Z,64.73
2018-12-06T23:49:29.431Z,63.76
2018-12-06T23:52:01.522Z,64.07
2018-12-06T23:54:31.267Z,64.62
2018-12-06T23:57:00.082Z,65.40
2018-12-06T23:59:28.986Z,66.98
